Aérodrome :
LOGIN :

S'inscrire | Disclaimer

   EN    FR    IT 

 










Légende :    VFR   VFR Marginal   IFR   IFR Intensif   IFR Très Intensif
Visi : 
Plafond : 
>= 8 km
>= 3000ft
5 à 8 km
1000 à 3000 ft
1500m à 5 km
500 à 1000 ft
800 à 1500m
200 à 500 ft
< 800m
< 200 ft
Symboles :   Orages  Brouillard  Fortes neiges  Fortes précipitations  Vent > 20 kt
SIGMETs :   Divers  Orages  Givrage  Turbulence  Onde Orograph.  Cendres Volcan.






- Altitude de l'aérodrome : 39 ft
- Code IATA : ANR


EBAW - Anvers / Antwerpen Deurne

DERNIER METAR :
  • 172050Z 24014G25KT 9999 FEW022 08/04 Q1016 TEMPO 24020G30KT 4000 SHRA

METARs EXPIRÉS :
  • 172020Z 24015KT 210V270 CAVOK 08/04 Q1015 TEMPO 24020G30KT 4000 SHRA
  • 171950Z 24014KT 220V280 CAVOK 08/05 Q1015 NOSIG
  • 171920Z 24013KT 9999 SCT025 09/05 Q1014 NOSIG
  • 171850Z 23013KT 9999 BKN025 09/04 Q1014 NOSIG
  • 171820Z 24014KT 9999 -SHRA BKN023 08/05 Q1014 NOSIG

TAF TAF EBAW
Valide du 17 à 21h jusqu'au 18 à 06h UTC


172000Z 1721/1806 24014KT 9999 FEW025
PROB30
TEMPO 1721/1801 24020G30KT 4000 SHRA BKN014CB



MET'MAP, la Météo Aéronautique d'un coup d'oeil ! - Copyright ORBIFLY Décembre 2007 - Disclaimer

ORBIFLY MET'MAP TEAM :

Programmation & Développement : Alexandra Zaïnal
Sur une idée originale de : Baudouin d'Aumeries
Assistance à la programmation : Marc-Olivier Méhu
Soutien technique & logistique : Manuel Goepfert

Contact : metmap@orbifly.com




SOURCES & CREDITS :

   NOAA